sensor_id;sensor_type;location;lat;lon;timestamp;temperature;humidity
12309;DHT22;6217;48.150;17.142;2023-08-12T00:02:35;19.90;75.00
12309;DHT22;6217;48.150;17.142;2023-08-12T00:06:42;19.80;75.30
12309;DHT22;6217;48.150;17.142;2023-08-12T00:10:48;19.80;75.40
12309;DHT22;6217;48.150;17.142;2023-08-12T00:14:54;19.70;75.40
12309;DHT22;6217;48.150;17.142;2023-08-12T00:19:00;19.70;75.70
12309;DHT22;6217;48.150;17.142;2023-08-12T00:23:07;19.70;75.90
12309;DHT22;6217;48.150;17.142;2023-08-12T00:27:13;19.60;76.10
12309;DHT22;6217;48.150;17.142;2023-08-12T00:31:19;19.60;76.50
12309;DHT22;6217;48.150;17.142;2023-08-12T00:35:26;19.50;76.70
12309;DHT22;6217;48.150;17.142;2023-08-12T00:39:32;19.40;76.80
12309;DHT22;6217;48.150;17.142;2023-08-12T00:43:38;19.40;76.90
12309;DHT22;6217;48.150;17.142;2023-08-12T00:47:44;19.30;77.00
12309;DHT22;6217;48.150;17.142;2023-08-12T00:51:50;19.30;77.10
12309;DHT22;6217;48.150;17.142;2023-08-12T00:55:58;19.20;77.00
12309;DHT22;6217;48.150;17.142;2023-08-12T01:00:04;19.20;77.00
12309;DHT22;6217;48.150;17.142;2023-08-12T01:04:10;19.20;77.00
12309;DHT22;6217;48.150;17.142;2023-08-12T01:08:16;19.20;77.00
12309;DHT22;6217;48.150;17.142;2023-08-12T01:12:31;19.20;76.90
12309;DHT22;6217;48.150;17.142;2023-08-12T01:16:42;19.20;77.10
12309;DHT22;6217;48.150;17.142;2023-08-12T01:20:51;19.10;77.20
12309;DHT22;6217;48.150;17.142;2023-08-12T01:24:57;19.10;77.20
12309;DHT22;6217;48.150;17.142;2023-08-12T01:29:03;19.10;77.20
12309;DHT22;6217;48.150;17.142;2023-08-12T01:33:15;19.00;77.30
12309;DHT22;6217;48.150;17.142;2023-08-12T01:37:31;19.00;77.40
12309;DHT22;6217;48.150;17.142;2023-08-12T01:41:38;19.00;77.40
12309;DHT22;6217;48.150;17.142;2023-08-12T01:45:45;18.90;77.50
12309;DHT22;6217;48.150;17.142;2023-08-12T01:49:51;18.90;77.60
12309;DHT22;6217;48.150;17.142;2023-08-12T01:53:57;18.90;77.50
12309;DHT22;6217;48.150;17.142;2023-08-12T01:58:03;18.90;78.00
12309;DHT22;6217;48.150;17.142;2023-08-12T02:02:09;18.90;77.80
12309;DHT22;6217;48.150;17.142;2023-08-12T02:06:16;18.90;77.90
12309;DHT22;6217;48.150;17.142;2023-08-12T02:10:21;18.90;78.00
12309;DHT22;6217;48.150;17.142;2023-08-12T02:14:27;18.90;78.10
12309;DHT22;6217;48.150;17.142;2023-08-12T02:18:33;18.80;78.50
12309;DHT22;6217;48.150;17.142;2023-08-12T02:22:39;18.80;78.40
12309;DHT22;6217;48.150;17.142;2023-08-12T02:26:45;18.80;78.50
12309;DHT22;6217;48.150;17.142;2023-08-12T02:30:53;18.70;78.50
12309;DHT22;6217;48.150;17.142;2023-08-12T02:34:59;18.70;78.40
12309;DHT22;6217;48.150;17.142;2023-08-12T02:39:05;18.60;78.40
12309;DHT22;6217;48.150;17.142;2023-08-12T02:43:11;18.60;78.40
12309;DHT22;6217;48.150;17.142;2023-08-12T02:47:18;18.70;78.30
12309;DHT22;6217;48.150;17.142;2023-08-12T02:51:23;18.70;78.10
12309;DHT22;6217;48.150;17.142;2023-08-12T02:55:29;18.60;78.20
12309;DHT22;6217;48.150;17.142;2023-08-12T02:59:37;18.60;78.20
12309;DHT22;6217;48.150;17.142;2023-08-12T03:03:43;18.50;78.50
12309;DHT22;6217;48.150;17.142;2023-08-12T03:07:50;18.50;78.70
12309;DHT22;6217;48.150;17.142;2023-08-12T03:11:57;18.50;79.10
12309;DHT22;6217;48.150;17.142;2023-08-12T03:16:11;18.30;79.60
12309;DHT22;6217;48.150;17.142;2023-08-12T03:20:20;18.30;79.90
12309;DHT22;6217;48.150;17.142;2023-08-12T03:24:26;18.30;80.00
12309;DHT22;6217;48.150;17.142;2023-08-12T03:28:32;18.30;79.90
12309;DHT22;6217;48.150;17.142;2023-08-12T03:32:39;18.20;80.00
12309;DHT22;6217;48.150;17.142;2023-08-12T03:36:47;18.20;80.20
12309;DHT22;6217;48.150;17.142;2023-08-12T03:40:56;18.20;80.30
12309;DHT22;6217;48.150;17.142;2023-08-12T03:45:04;18.10;80.40
12309;DHT22;6217;48.150;17.142;2023-08-12T03:49:11;18.10;80.50
12309;DHT22;6217;48.150;17.142;2023-08-12T03:53:19;18.10;80.50
12309;DHT22;6217;48.150;17.142;2023-08-12T03:57:26;18.10;80.60
12309;DHT22;6217;48.150;17.142;2023-08-12T04:01:33;18.10;80.60
12309;DHT22;6217;48.150;17.142;2023-08-12T04:05:50;18.10;80.60
12309;DHT22;6217;48.150;17.142;2023-08-12T04:09:58;18.10;80.70
12309;DHT22;6217;48.150;17.142;2023-08-12T04:14:04;18.10;80.60
12309;DHT22;6217;48.150;17.142;2023-08-12T04:18:11;18.10;80.70
12309;DHT22;6217;48.150;17.142;2023-08-12T04:22:19;18.10;80.90
12309;DHT22;6217;48.150;17.142;2023-08-12T04:26:25;18.20;80.80
12309;DHT22;6217;48.150;17.142;2023-08-12T04:30:32;18.20;80.60
12309;DHT22;6217;48.150;17.142;2023-08-12T04:34:38;18.20;80.60
12309;DHT22;6217;48.150;17.142;2023-08-12T04:38:44;18.30;80.60
12309;DHT22;6217;48.150;17.142;2023-08-12T04:42:51;18.30;80.70
12309;DHT22;6217;48.150;17.142;2023-08-12T04:46:58;18.30;80.50
12309;DHT22;6217;48.150;17.142;2023-08-12T04:51:04;18.40;80.40
12309;DHT22;6217;48.150;17.142;2023-08-12T04:55:13;18.50;80.40
12309;DHT22;6217;48.150;17.142;2023-08-12T04:59:21;18.60;80.30
12309;DHT22;6217;48.150;17.142;2023-08-12T05:03:28;18.70;80.20
12309;DHT22;6217;48.150;17.142;2023-08-12T05:07:34;18.70;80.00
12309;DHT22;6217;48.150;17.142;2023-08-12T05:11:40;18.80;80.00
12309;DHT22;6217;48.150;17.142;2023-08-12T05:15:47;18.90;79.70
12309;DHT22;6217;48.150;17.142;2023-08-12T05:19:54;19.10;79.60
12309;DHT22;6217;48.150;17.142;2023-08-12T05:23:59;19.20;79.30
12309;DHT22;6217;48.150;17.142;2023-08-12T05:28:07;19.20;79.00
12309;DHT22;6217;48.150;17.142;2023-08-12T05:32:13;19.30;79.10
12309;DHT22;6217;48.150;17.142;2023-08-12T05:36:19;19.40;78.90
12309;DHT22;6217;48.150;17.142;2023-08-12T05:40:25;19.50;78.90
12309;DHT22;6217;48.150;17.142;2023-08-12T05:44:30;19.60;78.70
12309;DHT22;6217;48.150;17.142;2023-08-12T05:48:36;19.70;78.50
12309;DHT22;6217;48.150;17.142;2023-08-12T05:52:43;19.90;78.00
12309;DHT22;6217;48.150;17.142;2023-08-12T05:56:49;19.90;77.70
12309;DHT22;6217;48.150;17.142;2023-08-12T06:00:55;20.10;77.60
12309;DHT22;6217;48.150;17.142;2023-08-12T06:05:02;20.40;77.10
12309;DHT22;6217;48.150;17.142;2023-08-12T06:09:08;20.60;76.50
12309;DHT22;6217;48.150;17.142;2023-08-12T06:13:14;20.70;75.80
12309;DHT22;6217;48.150;17.142;2023-08-12T06:17:20;20.90;75.40
12309;DHT22;6217;48.150;17.142;2023-08-12T06:21:26;21.10;75.00
12309;DHT22;6217;48.150;17.142;2023-08-12T06:25:31;21.30;74.40
12309;DHT22;6217;48.150;17.142;2023-08-12T06:29:37;21.30;73.70
12309;DHT22;6217;48.150;17.142;2023-08-12T06:33:43;21.40;73.70
12309;DHT22;6217;48.150;17.142;2023-08-12T06:37:50;21.60;73.50
12309;DHT22;6217;48.150;17.142;2023-08-12T06:41:56;21.80;72.90
12309;DHT22;6217;48.150;17.142;2023-08-12T06:46:02;21.90;72.70
12309;DHT22;6217;48.150;17.142;2023-08-12T06:50:08;21.90;72.10
12309;DHT22;6217;48.150;17.142;2023-08-12T06:54:14;22.00;71.90
12309;DHT22;6217;48.150;17.142;2023-08-12T06:58:20;22.10;71.50
12309;DHT22;6217;48.150;17.142;2023-08-12T07:02:26;22.10;71.30
12309;DHT22;6217;48.150;17.142;2023-08-12T07:06:32;22.20;71.20
12309;DHT22;6217;48.150;17.142;2023-08-12T07:10:39;22.20;70.70
12309;DHT22;6217;48.150;17.142;2023-08-12T07:14:45;22.30;70.50
12309;DHT22;6217;48.150;17.142;2023-08-12T07:18:51;22.30;70.30
12309;DHT22;6217;48.150;17.142;2023-08-12T07:22:57;22.30;70.10
12309;DHT22;6217;48.150;17.142;2023-08-12T07:27:03;22.40;70.00
12309;DHT22;6217;48.150;17.142;2023-08-12T07:31:09;22.50;69.60
12309;DHT22;6217;48.150;17.142;2023-08-12T07:35:15;22.60;69.50
12309;DHT22;6217;48.150;17.142;2023-08-12T07:39:21;22.70;69.10
12309;DHT22;6217;48.150;17.142;2023-08-12T07:43:27;22.70;68.90
12309;DHT22;6217;48.150;17.142;2023-08-12T07:47:33;22.50;69.30
12309;DHT22;6217;48.150;17.142;2023-08-12T07:51:39;22.50;69.60
12309;DHT22;6217;48.150;17.142;2023-08-12T07:55:45;22.60;69.80
12309;DHT22;6217;48.150;17.142;2023-08-12T07:59:51;22.70;69.70
12309;DHT22;6217;48.150;17.142;2023-08-12T08:03:57;22.70;69.30
12309;DHT22;6217;48.150;17.142;2023-08-12T08:08:03;22.90;69.50
12309;DHT22;6217;48.150;17.142;2023-08-12T08:12:10;23.00;69.00
12309;DHT22;6217;48.150;17.142;2023-08-12T08:16:16;23.00;68.80
12309;DHT22;6217;48.150;17.142;2023-08-12T08:20:22;23.00;69.10
12309;DHT22;6217;48.150;17.142;2023-08-12T08:24:29;23.10;69.00
12309;DHT22;6217;48.150;17.142;2023-08-12T08:28:35;23.30;68.50
12309;DHT22;6217;48.150;17.142;2023-08-12T08:32:41;23.40;68.00
12309;DHT22;6217;48.150;17.142;2023-08-12T08:36:47;23.40;68.00
12309;DHT22;6217;48.150;17.142;2023-08-12T08:40:53;23.50;67.90
12309;DHT22;6217;48.150;17.142;2023-08-12T08:45:00;23.60;68.00
12309;DHT22;6217;48.150;17.142;2023-08-12T08:49:08;23.60;67.90
12309;DHT22;6217;48.150;17.142;2023-08-12T08:53:16;23.70;67.90
12309;DHT22;6217;48.150;17.142;2023-08-12T08:57:22;23.90;67.80
12309;DHT22;6217;48.150;17.142;2023-08-12T09:01:28;24.10;67.20
12309;DHT22;6217;48.150;17.142;2023-08-12T09:05:35;24.30;67.00
12309;DHT22;6217;48.150;17.142;2023-08-12T09:09:48;24.40;67.00
12309;DHT22;6217;48.150;17.142;2023-08-12T09:13:54;24.60;66.70
12309;DHT22;6217;48.150;17.142;2023-08-12T09:18:00;24.70;66.30
12309;DHT22;6217;48.150;17.142;2023-08-12T09:22:07;25.00;65.90
12309;DHT22;6217;48.150;17.142;2023-08-12T09:26:19;25.00;65.30
12309;DHT22;6217;48.150;17.142;2023-08-12T09:30:28;25.00;65.30
12309;DHT22;6217;48.150;17.142;2023-08-12T09:34:35;25.10;65.10
12309;DHT22;6217;48.150;17.142;2023-08-12T09:38:43;25.10;65.10
12309;DHT22;6217;48.150;17.142;2023-08-12T09:42:49;25.20;65.30
12309;DHT22;6217;48.150;17.142;2023-08-12T09:46:58;25.30;65.20
12309;DHT22;6217;48.150;17.142;2023-08-12T09:51:04;25.50;64.90
12309;DHT22;6217;48.150;17.142;2023-08-12T09:55:11;25.70;64.80
12309;DHT22;6217;48.150;17.142;2023-08-12T09:59:22;25.80;64.10
12309;DHT22;6217;48.150;17.142;2023-08-12T10:03:31;25.90;63.60
12309;DHT22;6217;48.150;17.142;2023-08-12T10:07:39;26.10;63.20
12309;DHT22;6217;48.150;17.142;2023-08-12T10:11:46;26.30;63.00
12309;DHT22;6217;48.150;17.142;2023-08-12T10:15:52;26.40;62.40
12309;DHT22;6217;48.150;17.142;2023-08-12T10:20:01;26.50;61.60
12309;DHT22;6217;48.150;17.142;2023-08-12T10:24:11;26.70;60.50
12309;DHT22;6217;48.150;17.142;2023-08-12T10:28:19;26.70;60.00
12309;DHT22;6217;48.150;17.142;2023-08-12T10:32:25;26.80;59.70
12309;DHT22;6217;48.150;17.142;2023-08-12T10:36:32;26.80;58.90
12309;DHT22;6217;48.150;17.142;2023-08-12T10:40:39;26.90;59.20
12309;DHT22;6217;48.150;17.142;2023-08-12T10:44:51;26.90;59.10
12309;DHT22;6217;48.150;17.142;2023-08-12T10:49:07;27.00;59.30
12309;DHT22;6217;48.150;17.142;2023-08-12T10:53:28;27.10;59.10
12309;DHT22;6217;48.150;17.142;2023-08-12T10:57:36;27.20;58.80
12309;DHT22;6217;48.150;17.142;2023-08-12T11:01:45;27.20;59.00
12309;DHT22;6217;48.150;17.142;2023-08-12T11:05:53;27.30;59.20
12309;DHT22;6217;48.150;17.142;2023-08-12T11:14:23;27.40;58.30
12309;DHT22;6217;48.150;17.142;2023-08-12T11:18:29;27.40;57.50
12309;DHT22;6217;48.150;17.142;2023-08-12T11:22:40;27.50;57.70
12309;DHT22;6217;48.150;17.142;2023-08-12T11:26:48;27.60;57.60
12309;DHT22;6217;48.150;17.142;2023-08-12T11:30:55;27.60;56.50
12309;DHT22;6217;48.150;17.142;2023-08-12T11:35:01;27.70;55.40
12309;DHT22;6217;48.150;17.142;2023-08-12T11:39:07;27.70;55.00
12309;DHT22;6217;48.150;17.142;2023-08-12T11:43:13;27.70;54.60
12309;DHT22;6217;48.150;17.142;2023-08-12T11:47:19;27.80;54.10
12309;DHT22;6217;48.150;17.142;2023-08-12T11:51:25;27.80;53.80
12309;DHT22;6217;48.150;17.142;2023-08-12T11:55:31;27.90;53.70
12309;DHT22;6217;48.150;17.142;2023-08-12T11:59:37;27.90;52.80
12309;DHT22;6217;48.150;17.142;2023-08-12T12:03:43;28.00;53.30
12309;DHT22;6217;48.150;17.142;2023-08-12T12:07:50;28.10;53.30
12309;DHT22;6217;48.150;17.142;2023-08-12T12:11:56;28.20;53.40
12309;DHT22;6217;48.150;17.142;2023-08-12T12:16:02;28.20;53.20
12309;DHT22;6217;48.150;17.142;2023-08-12T12:20:09;28.20;52.40
12309;DHT22;6217;48.150;17.142;2023-08-12T12:24:17;28.20;53.00
12309;DHT22;6217;48.150;17.142;2023-08-12T12:28:23;28.20;52.60
12309;DHT22;6217;48.150;17.142;2023-08-12T12:32:29;28.10;52.60
12309;DHT22;6217;48.150;17.142;2023-08-12T12:36:36;28.00;52.90
12309;DHT22;6217;48.150;17.142;2023-08-12T12:40:43;28.10;53.20
12309;DHT22;6217;48.150;17.142;2023-08-12T12:44:49;28.20;53.20
12309;DHT22;6217;48.150;17.142;2023-08-12T12:48:55;28.20;53.10
12309;DHT22;6217;48.150;17.142;2023-08-12T12:53:01;28.20;53.30
12309;DHT22;6217;48.150;17.142;2023-08-12T12:57:06;28.20;53.20
12309;DHT22;6217;48.150;17.142;2023-08-12T13:01:12;28.10;53.20
12309;DHT22;6217;48.150;17.142;2023-08-12T13:05:18;28.20;52.90
12309;DHT22;6217;48.150;17.142;2023-08-12T13:09:24;28.20;52.90
12309;DHT22;6217;48.150;17.142;2023-08-12T13:13:30;28.30;53.60
12309;DHT22;6217;48.150;17.142;2023-08-12T13:17:36;28.30;52.90
12309;DHT22;6217;48.150;17.142;2023-08-12T13:21:42;28.30;52.80
12309;DHT22;6217;48.150;17.142;2023-08-12T13:25:48;28.30;52.70
12309;DHT22;6217;48.150;17.142;2023-08-12T13:29:54;28.30;52.80
12309;DHT22;6217;48.150;17.142;2023-08-12T13:33:59;28.30;52.80
12309;DHT22;6217;48.150;17.142;2023-08-12T13:38:05;28.30;52.60
12309;DHT22;6217;48.150;17.142;2023-08-12T13:42:11;28.20;52.30
12309;DHT22;6217;48.150;17.142;2023-08-12T13:46:17;28.20;52.20
12309;DHT22;6217;48.150;17.142;2023-08-12T13:50:23;28.20;52.30
12309;DHT22;6217;48.150;17.142;2023-08-12T13:54:29;28.20;52.50
12309;DHT22;6217;48.150;17.142;2023-08-12T13:58:35;28.10;52.30
12309;DHT22;6217;48.150;17.142;2023-08-12T14:02:41;28.10;52.40
12309;DHT22;6217;48.150;17.142;2023-08-12T14:06:47;28.10;52.30
12309;DHT22;6217;48.150;17.142;2023-08-12T14:10:52;28.10;52.20
12309;DHT22;6217;48.150;17.142;2023-08-12T14:14:59;28.10;52.30
12309;DHT22;6217;48.150;17.142;2023-08-12T14:19:05;28.20;52.60
12309;DHT22;6217;48.150;17.142;2023-08-12T14:23:10;28.10;52.60
12309;DHT22;6217;48.150;17.142;2023-08-12T14:27:16;28.00;52.10
12309;DHT22;6217;48.150;17.142;2023-08-12T14:31:23;28.00;52.10
12309;DHT22;6217;48.150;17.142;2023-08-12T14:35:29;28.00;52.10
12309;DHT22;6217;48.150;17.142;2023-08-12T14:39:35;28.00;52.20
12309;DHT22;6217;48.150;17.142;2023-08-12T14:43:41;28.00;52.20
12309;DHT22;6217;48.150;17.142;2023-08-12T14:47:47;28.00;52.10
12309;DHT22;6217;48.150;17.142;2023-08-12T14:51:55;28.00;52.10
12309;DHT22;6217;48.150;17.142;2023-08-12T14:56:01;27.90;51.90
12309;DHT22;6217;48.150;17.142;2023-08-12T15:00:09;27.90;51.80
12309;DHT22;6217;48.150;17.142;2023-08-12T15:04:16;27.90;52.50
12309;DHT22;6217;48.150;17.142;2023-08-12T15:08:22;27.90;51.90
12309;DHT22;6217;48.150;17.142;2023-08-12T15:12:28;27.90;51.90
12309;DHT22;6217;48.150;17.142;2023-08-12T15:16:34;28.00;51.90
12309;DHT22;6217;48.150;17.142;2023-08-12T15:20:40;27.90;51.70
12309;DHT22;6217;48.150;17.142;2023-08-12T15:24:46;27.90;51.70
12309;DHT22;6217;48.150;17.142;2023-08-12T15:28:52;27.90;51.90
12309;DHT22;6217;48.150;17.142;2023-08-12T15:32:57;27.90;51.90
12309;DHT22;6217;48.150;17.142;2023-08-12T15:37:03;27.90;52.00
12309;DHT22;6217;48.150;17.142;2023-08-12T15:41:13;27.90;52.10
12309;DHT22;6217;48.150;17.142;2023-08-12T15:45:20;27.90;52.00
12309;DHT22;6217;48.150;17.142;2023-08-12T15:49:31;27.90;52.20
12309;DHT22;6217;48.150;17.142;2023-08-12T15:53:38;27.80;52.10
12309;DHT22;6217;48.150;17.142;2023-08-12T15:57:44;27.80;52.30
12309;DHT22;6217;48.150;17.142;2023-08-12T16:01:50;27.70;53.00
12309;DHT22;6217;48.150;17.142;2023-08-12T16:05:56;27.70;52.40
12309;DHT22;6217;48.150;17.142;2023-08-12T16:10:04;27.70;52.50
12309;DHT22;6217;48.150;17.142;2023-08-12T16:14:10;27.60;52.70
12309;DHT22;6217;48.150;17.142;2023-08-12T16:18:16;27.60;52.80
12309;DHT22;6217;48.150;17.142;2023-08-12T16:22:22;27.60;53.00
12309;DHT22;6217;48.150;17.142;2023-08-12T16:26:28;27.60;53.10
12309;DHT22;6217;48.150;17.142;2023-08-12T16:30:34;27.50;53.20
12309;DHT22;6217;48.150;17.142;2023-08-12T16:34:40;27.50;53.30
12309;DHT22;6217;48.150;17.142;2023-08-12T16:38:46;27.50;53.40
12309;DHT22;6217;48.150;17.142;2023-08-12T16:42:52;27.50;53.50
12309;DHT22;6217;48.150;17.142;2023-08-12T16:46:58;27.40;53.60
12309;DHT22;6217;48.150;17.142;2023-08-12T16:51:04;27.40;53.60
12309;DHT22;6217;48.150;17.142;2023-08-12T16:55:10;27.40;53.80
12309;DHT22;6217;48.150;17.142;2023-08-12T16:59:16;27.30;53.90
12309;DHT22;6217;48.150;17.142;2023-08-12T17:03:21;27.30;54.20
12309;DHT22;6217;48.150;17.142;2023-08-12T17:07:27;27.20;54.30
12309;DHT22;6217;48.150;17.142;2023-08-12T17:11:34;27.10;54.40
12309;DHT22;6217;48.150;17.142;2023-08-12T17:15:42;27.10;54.60
12309;DHT22;6217;48.150;17.142;2023-08-12T17:19:48;27.00;54.80
12309;DHT22;6217;48.150;17.142;2023-08-12T17:23:54;26.90;54.90
12309;DHT22;6217;48.150;17.142;2023-08-12T17:28:00;26.90;55.20
12309;DHT22;6217;48.150;17.142;2023-08-12T17:32:06;26.90;55.30
12309;DHT22;6217;48.150;17.142;2023-08-12T17:36:12;26.80;55.60
12309;DHT22;6217;48.150;17.142;2023-08-12T17:40:18;26.70;55.80
12309;DHT22;6217;48.150;17.142;2023-08-12T17:44:27;26.60;56.00
12309;DHT22;6217;48.150;17.142;2023-08-12T17:48:33;26.60;56.10
12309;DHT22;6217;48.150;17.142;2023-08-12T17:52:39;26.50;56.20
12309;DHT22;6217;48.150;17.142;2023-08-12T17:56:45;26.40;56.50
12309;DHT22;6217;48.150;17.142;2023-08-12T18:00:51;26.30;56.90
12309;DHT22;6217;48.150;17.142;2023-08-12T18:04:57;26.30;57.20
12309;DHT22;6217;48.150;17.142;2023-08-12T18:09:03;26.20;57.30
12309;DHT22;6217;48.150;17.142;2023-08-12T18:13:09;26.10;57.60
12309;DHT22;6217;48.150;17.142;2023-08-12T18:17:15;26.00;57.80
12309;DHT22;6217;48.150;17.142;2023-08-12T18:21:21;26.00;58.10
12309;DHT22;6217;48.150;17.142;2023-08-12T18:25:27;25.90;58.40
12309;DHT22;6217;48.150;17.142;2023-08-12T18:29:33;25.80;58.70
12309;DHT22;6217;48.150;17.142;2023-08-12T18:33:39;25.70;58.90
12309;DHT22;6217;48.150;17.142;2023-08-12T18:37:45;25.60;59.10
12309;DHT22;6217;48.150;17.142;2023-08-12T18:41:51;25.60;59.40
12309;DHT22;6217;48.150;17.142;2023-08-12T18:45:56;25.50;59.60
12309;DHT22;6217;48.150;17.142;2023-08-12T18:50:03;25.50;59.80
12309;DHT22;6217;48.150;17.142;2023-08-12T18:54:09;25.40;60.00
12309;DHT22;6217;48.150;17.142;2023-08-12T18:58:15;25.40;60.30
12309;DHT22;6217;48.150;17.142;2023-08-12T19:02:21;25.30;60.40
12309;DHT22;6217;48.150;17.142;2023-08-12T19:06:27;25.20;60.70
12309;DHT22;6217;48.150;17.142;2023-08-12T19:10:32;25.10;61.60
12309;DHT22;6217;48.150;17.142;2023-08-12T19:14:38;25.10;61.20
12309;DHT22;6217;48.150;17.142;2023-08-12T19:18:45;25.00;61.40
12309;DHT22;6217;48.150;17.142;2023-08-12T19:22:52;24.90;61.80
12309;DHT22;6217;48.150;17.142;2023-08-12T19:26:57;24.90;62.00
12309;DHT22;6217;48.150;17.142;2023-08-12T19:31:03;24.80;62.10
12309;DHT22;6217;48.150;17.142;2023-08-12T19:35:09;24.70;62.20
12309;DHT22;6217;48.150;17.142;2023-08-12T19:39:15;24.70;62.60
12309;DHT22;6217;48.150;17.142;2023-08-12T19:43:22;24.60;62.80
12309;DHT22;6217;48.150;17.142;2023-08-12T19:47:28;24.50;62.90
12309;DHT22;6217;48.150;17.142;2023-08-12T19:51:33;24.50;63.20
12309;DHT22;6217;48.150;17.142;2023-08-12T19:55:39;24.50;63.40
12309;DHT22;6217;48.150;17.142;2023-08-12T19:59:45;24.40;63.50
12309;DHT22;6217;48.150;17.142;2023-08-12T20:03:51;24.30;63.80
12309;DHT22;6217;48.150;17.142;2023-08-12T20:07:57;24.30;64.00
12309;DHT22;6217;48.150;17.142;2023-08-12T20:12:04;24.30;64.20
12309;DHT22;6217;48.150;17.142;2023-08-12T20:16:10;24.20;64.50
12309;DHT22;6217;48.150;17.142;2023-08-12T20:20:17;24.10;64.80
12309;DHT22;6217;48.150;17.142;2023-08-12T20:24:23;24.00;65.00
12309;DHT22;6217;48.150;17.142;2023-08-12T20:28:29;23.90;65.30
12309;DHT22;6217;48.150;17.142;2023-08-12T20:32:36;23.80;65.40
12309;DHT22;6217;48.150;17.142;2023-08-12T20:36:42;23.70;65.70
12309;DHT22;6217;48.150;17.142;2023-08-12T20:40:50;23.70;65.90
12309;DHT22;6217;48.150;17.142;2023-08-12T20:44:56;23.60;66.10
12309;DHT22;6217;48.150;17.142;2023-08-12T20:49:01;23.60;66.30
12309;DHT22;6217;48.150;17.142;2023-08-12T20:53:08;23.60;66.50
12309;DHT22;6217;48.150;17.142;2023-08-12T20:57:14;23.50;66.70
12309;DHT22;6217;48.150;17.142;2023-08-12T21:01:20;23.50;66.90
12309;DHT22;6217;48.150;17.142;2023-08-12T21:05:26;23.40;66.90
12309;DHT22;6217;48.150;17.142;2023-08-12T21:09:32;23.40;67.10
12309;DHT22;6217;48.150;17.142;2023-08-12T21:13:38;23.30;67.30
12309;DHT22;6217;48.150;17.142;2023-08-12T21:17:44;23.30;67.50
12309;DHT22;6217;48.150;17.142;2023-08-12T21:21:50;23.20;67.60
12309;DHT22;6217;48.150;17.142;2023-08-12T21:25:56;23.10;67.80
12309;DHT22;6217;48.150;17.142;2023-08-12T21:30:02;23.10;67.90
12309;DHT22;6217;48.150;17.142;2023-08-12T21:34:08;23.10;68.10
12309;DHT22;6217;48.150;17.142;2023-08-12T21:38:14;23.10;68.20
12309;DHT22;6217;48.150;17.142;2023-08-12T21:42:20;23.00;68.30
12309;DHT22;6217;48.150;17.142;2023-08-12T21:46:26;23.00;68.50
12309;DHT22;6217;48.150;17.142;2023-08-12T21:50:32;23.00;68.60
12309;DHT22;6217;48.150;17.142;2023-08-12T21:54:38;22.90;68.80
12309;DHT22;6217;48.150;17.142;2023-08-12T21:58:46;22.90;68.90
12309;DHT22;6217;48.150;17.142;2023-08-12T22:02:54;22.90;69.00
12309;DHT22;6217;48.150;17.142;2023-08-12T22:07:00;22.80;69.10
12309;DHT22;6217;48.150;17.142;2023-08-12T22:11:06;22.80;69.50
12309;DHT22;6217;48.150;17.142;2023-08-12T22:15:12;22.70;69.80
12309;DHT22;6217;48.150;17.142;2023-08-12T22:19:18;22.70;70.00
12309;DHT22;6217;48.150;17.142;2023-08-12T22:23:25;22.60;70.00
12309;DHT22;6217;48.150;17.142;2023-08-12T22:27:31;22.60;70.10
12309;DHT22;6217;48.150;17.142;2023-08-12T22:31:37;22.50;70.10
12309;DHT22;6217;48.150;17.142;2023-08-12T22:35:43;22.50;70.10
12309;DHT22;6217;48.150;17.142;2023-08-12T22:39:48;22.40;70.10
12309;DHT22;6217;48.150;17.142;2023-08-12T22:43:54;22.50;70.40
12309;DHT22;6217;48.150;17.142;2023-08-12T22:48:00;22.50;70.40
12309;DHT22;6217;48.150;17.142;2023-08-12T22:52:06;22.40;70.60
12309;DHT22;6217;48.150;17.142;2023-08-12T22:56:12;22.30;70.70
12309;DHT22;6217;48.150;17.142;2023-08-12T23:00:18;22.30;70.90
12309;DHT22;6217;48.150;17.142;2023-08-12T23:04:24;22.30;70.90
12309;DHT22;6217;48.150;17.142;2023-08-12T23:08:30;22.30;71.10
12309;DHT22;6217;48.150;17.142;2023-08-12T23:12:36;22.20;71.30
12309;DHT22;6217;48.150;17.142;2023-08-12T23:16:42;22.20;71.60
12309;DHT22;6217;48.150;17.142;2023-08-12T23:20:48;22.10;71.80
12309;DHT22;6217;48.150;17.142;2023-08-12T23:24:54;22.00;72.00
12309;DHT22;6217;48.150;17.142;2023-08-12T23:29:00;22.00;72.20
12309;DHT22;6217;48.150;17.142;2023-08-12T23:33:06;21.90;72.50
12309;DHT22;6217;48.150;17.142;2023-08-12T23:37:12;21.90;72.70
12309;DHT22;6217;48.150;17.142;2023-08-12T23:41:18;21.80;73.00
12309;DHT22;6217;48.150;17.142;2023-08-12T23:45:24;21.70;73.30
12309;DHT22;6217;48.150;17.142;2023-08-12T23:49:30;21.70;73.50
12309;DHT22;6217;48.150;17.142;2023-08-12T23:53:36;21.70;73.80
12309;DHT22;6217;48.150;17.142;2023-08-12T23:57:42;21.60;74.00
